Maike D — V2FO4 — position and weather

sailwx.info

Track history (hours):
 
Tides and Currents Weather Stations Pressure Air Temp Water Temp Dewpoint Dewpoint Depression Visibility Wind Speed Wind Dir Waves Ship Positions

Maike D

Last reported at 2014-Nov-23 15:33 UTC. Time now 2014-Nov-23 16:06 UTC.
Position N 51°28' E 001°26'.

Length 133 m; draft 6.8 m.

Type: Ship (hazmat cat A). MMSI: 305739000.

Date/timePositionNaut miles runAvg speedWind from/ knotsBaromVisibWave heightAir tempDewpointWater temp
2014-Nov-23 15:33N 51°28' E 001°26'1716.5
2014-Nov-23 14:33N 51°29' E 000°59'1716.7
2014-Nov-23 13:34N 51°30' E 000°32'8 7.9
2014-Nov-23 12:33N 51°27' E 000°21'0 0.3
2014-Nov-23 11:33N 51°28' E 000°20'0 0.0
2014-Nov-23 10:33N 51°28' E 000°20'0 0.0
2014-Nov-23 09:33N 51°28' E 000°20'0 0.0
2014-Nov-23 08:33N 51°28' E 000°20'0 0.0
2014-Nov-23 07:33N 51°28' E 000°20'0 0.0
2014-Nov-23 06:33N 51°28' E 000°20'0 0.0
2014-Nov-23 05:33N 51°28' E 000°20'0 0.0
2014-Nov-23 04:33N 51°28' E 000°20'0 0.0
2014-Nov-23 03:33N 51°28' E 000°20'0 0.4
2014-Nov-23 02:33N 51°27' E 000°20'5 4.7
2014-Nov-23 01:33N 51°29' E 000°27'1212.3
2014-Nov-23 00:33N 51°29' E 000°47'1616.1
2014-Nov-22 23:34N 51°29' E 001°13'1212.2
2014-Nov-22 22:33N 51°25' E 001°31'10 9.9
2014-Nov-22 21:33N 51°17' E 001°40'1413.6
2014-Nov-22 20:32N 51°03' E 001°36'  
2014-Nov-20 02:05N 38°37' W 009°24'814.1
2014-Nov-20 01:33N 38°41' W 009°16'9 8.6
2014-Nov-20 00:33N 38°44' W 009°06'0 0.0
2014-Nov-19 23:20N 38°44' W 009°06'0 0.0
2014-Nov-19 22:32N 38°44' W 009°06'0 0.0
2014-Nov-19 21:26N 38°44' W 009°06'0 0.0
2014-Nov-19 20:29N 38°44' W 009°06'0 0.0
2014-Nov-19 19:32N 38°44' W 009°06'0 0.0
2014-Nov-19 18:26N 38°44' W 009°06'0 0.0
2014-Nov-19 17:29N 38°44' W 009°06'0 0.0
2014-Nov-19 16:32N 38°44' W 009°06'0 0.0
2014-Nov-19 15:32N 38°44' W 009°06'2 2.2
2014-Nov-19 14:34N 38°42' W 009°07'8 7.6
2014-Nov-19 13:33N 38°41' W 009°17'2512.6
2014-Nov-19 11:33N 38°17' W 009°26'1313.7
2014-Nov-19 10:33N 38°03' W 009°26'1413.4
2014-Nov-19 09:33N 37°50' W 009°27'1413.5
2014-Nov-19 08:33N 37°36' W 009°27'20912.0
2014-Nov-18 15:06N 35°58' W 005°36'711.5
2014-Nov-18 14:30N 36°00' W 005°27'234 8.0
2014-Nov-17 09:23N 37°34' W 000°59'  
Track history (hours):
 
Tides and Currents Weather Stations Pressure Air Temp Water Temp Dewpoint Dewpoint Depression Visibility Wind Speed Wind Dir Waves Ship Positions

Maike D

Last reported at 2014-Nov-23 15:33 UTC. Time now 2014-Nov-23 16:06 UTC.
Position N 51°28' E 001°26'.

Length 133 m; draft 6.8 m.

Type: Ship (hazmat cat A). MMSI: 305739000.

Date/timePositionNaut miles runAvg speedWind from/ knotsBaromVisibWave heightAir tempDewpointWater temp
2014-Nov-23 15:33N 51°28' E 001°26'1716.5
2014-Nov-23 14:33N 51°29' E 000°59'1716.7
2014-Nov-23 13:34N 51°30' E 000°32'8 7.9
2014-Nov-23 12:33N 51°27' E 000°21'0 0.3
2014-Nov-23 11:33N 51°28' E 000°20'0 0.0
2014-Nov-23 10:33N 51°28' E 000°20'0 0.0
2014-Nov-23 09:33N 51°28' E 000°20'0 0.0
2014-Nov-23 08:33N 51°28' E 000°20'0 0.0
2014-Nov-23 07:33N 51°28' E 000°20'0 0.0
2014-Nov-23 06:33N 51°28' E 000°20'0 0.0
2014-Nov-23 05:33N 51°28' E 000°20'0 0.0
2014-Nov-23 04:33N 51°28' E 000°20'0 0.0
2014-Nov-23 03:33N 51°28' E 000°20'0 0.4
2014-Nov-23 02:33N 51°27' E 000°20'5 4.7
2014-Nov-23 01:33N 51°29' E 000°27'1212.3
2014-Nov-23 00:33N 51°29' E 000°47'1616.1
2014-Nov-22 23:34N 51°29' E 001°13'1212.2
2014-Nov-22 22:33N 51°25' E 001°31'10 9.9
2014-Nov-22 21:33N 51°17' E 001°40'1413.6
2014-Nov-22 20:32N 51°03' E 001°36'  
2014-Nov-20 02:05N 38°37' W 009°24'814.1
2014-Nov-20 01:33N 38°41' W 009°16'9 8.6
2014-Nov-20 00:33N 38°44' W 009°06'0 0.0
2014-Nov-19 23:20N 38°44' W 009°06'0 0.0
2014-Nov-19 22:32N 38°44' W 009°06'0 0.0
2014-Nov-19 21:26N 38°44' W 009°06'0 0.0
2014-Nov-19 20:29N 38°44' W 009°06'0 0.0
2014-Nov-19 19:32N 38°44' W 009°06'0 0.0
2014-Nov-19 18:26N 38°44' W 009°06'0 0.0
2014-Nov-19 17:29N 38°44' W 009°06'0 0.0
2014-Nov-19 16:32N 38°44' W 009°06'0 0.0
2014-Nov-19 15:32N 38°44' W 009°06'2 2.2
2014-Nov-19 14:34N 38°42' W 009°07'8 7.6
2014-Nov-19 13:33N 38°41' W 009°17'2512.6
2014-Nov-19 11:33N 38°17' W 009°26'1313.7
2014-Nov-19 10:33N 38°03' W 009°26'1413.4
2014-Nov-19 09:33N 37°50' W 009°27'1413.5
2014-Nov-19 08:33N 37°36' W 009°27'20912.0
2014-Nov-18 15:06N 35°58' W 005°36'711.5
2014-Nov-18 14:30N 36°00' W 005°27'234 8.0
2014-Nov-17 09:23N 37°34' W 000°59'  

Dump ship's entire track history